Time;durP1;ratioP1;P1;durP2;ratioP2;P2;SDS_P1;SDS_P2;PMS_P1;PMS_P2;Temp;Humidity;BMP_temperature;BMP_pressure;BME280_temperature;BME280_humidity;BME280_pressure;Samples;Min_cycle;Max_cycle;Signal;HPM_P1;HPM_P2
2021/09/11 00:01:51;;;;;;;6.70;6.03;;;;;;;;;;5010176;28;20525;-36
2021/09/11 00:04:16;;;;;;;5.80;4.95;;;;;;;;;;5012067;28;20057;-36
2021/09/11 00:06:42;;;;;;;13.90;5.85;;;;;;;;;;5014362;28;20143;-36
2021/09/11 00:09:08;;;;;;;6.22;4.70;;;;;;;;;;5009624;28;20133;-36
2021/09/11 00:11:33;;;;;;;14.27;5.05;;;;;;;;;;5005112;28;20100;-36
2021/09/11 00:13:59;;;;;;;4.93;3.60;;;;;;;;;;5012286;28;20025;-36
2021/09/11 00:16:24;;;;;;;24.63;5.72;;;;;;;;;;5016568;28;20029;-37
2021/09/11 00:18:49;;;;;;;6.22;5.25;;;;;;;;;;5013166;28;20341;-37
2021/09/11 00:21:14;;;;;;;6.57;4.57;;;;;;;;;;5009770;28;20018;-37
2021/09/11 00:23:40;;;;;;;7.45;4.65;;;;;;;;;;5017276;28;20028;-37
2021/09/11 00:26:05;;;;;;;5.88;5.00;;;;;;;;;;5020610;28;20021;-37
2021/09/11 00:28:31;;;;;;;6.63;5.32;;;;;;;;;;5012752;28;20769;-37
2021/09/11 00:30:56;;;;;;;6.80;4.43;;;;;;;;;;5010506;28;20021;-38
2021/09/11 00:33:22;;;;;;;7.13;5.63;;;;;;;;;;5011144;28;20590;-37
2021/09/11 00:35:47;;;;;;;6.05;4.47;;;;;;;;;;5013341;28;20666;-37
2021/09/11 00:38:12;;;;;;;15.35;4.40;;;;;;;;;;5013106;28;20604;-36
2021/09/11 00:40:38;;;;;;;6.47;5.72;;;;;;;;;;5012743;28;20129;-37
2021/09/11 00:43:03;;;;;;;6.25;4.25;;;;;;;;;;5015810;28;20030;-36
2021/09/11 00:45:28;;;;;;;7.15;4.97;;;;;;;;;;5008557;28;20030;-42
2021/09/11 00:47:54;;;;;;;6.00;4.97;;;;;;;;;;5012070;28;20033;-37
2021/09/11 00:50:20;;;;;;;7.43;5.30;;;;;;;;;;5017442;28;20021;-37
2021/09/11 00:52:46;;;;;;;8.18;5.63;;;;;;;;;;5018839;28;20036;-37
2021/09/11 00:55:12;;;;;;;8.23;5.13;;;;;;;;;;5015415;28;20029;-37
2021/09/11 00:57:39;;;;;;;6.10;5.22;;;;;;;;;;5014008;28;20032;-37
2021/09/11 01:00:05;;;;;;;9.70;6.18;;;;;;;;;;5012030;28;20149;-37
2021/09/11 01:02:30;;;;;;;5.25;4.60;;;;;;;;;;5010970;28;20143;-37
2021/09/11 01:04:56;;;;;;;6.72;5.28;;;;;;;;;;5015090;28;20049;-38
2021/09/11 01:07:21;;;;;;;8.32;4.75;;;;;;;;;;5007678;28;20041;-38
2021/09/11 01:09:47;;;;;;;13.18;6.47;;;;;;;;;;5016734;28;20025;-37
2021/09/11 01:12:12;;;;;;;5.35;4.80;;;;;;;;;;5013868;28;20087;-37
2021/09/11 01:14:37;;;;;;;3.53;3.22;;;;;;;;;;5015240;28;20036;-38
2021/09/11 01:17:03;;;;;;;6.43;5.10;;;;;;;;;;5015776;28;20034;-37
2021/09/11 01:19:28;;;;;;;13.88;5.82;;;;;;;;;;5010975;28;20084;-38
2021/09/11 01:21:53;;;;;;;9.00;4.95;;;;;;;;;;5009794;28;20084;-37
2021/09/11 01:24:18;;;;;;;5.90;5.25;;;;;;;;;;5009495;28;20529;-37
2021/09/11 01:26:48;;;;;;;6.45;5.22;;;;;;;;;;5016066;28;20041;-38
2021/09/11 01:29:13;;;;;;;7.47;6.65;;;;;;;;;;5015360;28;20018;-38
2021/09/11 01:31:39;;;;;;;7.70;6.00;;;;;;;;;;5019593;28;20612;-38
2021/09/11 01:34:04;;;;;;;8.02;6.45;;;;;;;;;;5022618;28;20084;-37
2021/09/11 01:36:29;;;;;;;7.07;6.43;;;;;;;;;;5016169;28;20025;-38
2021/09/11 01:38:55;;;;;;;13.18;6.13;;;;;;;;;;5011770;28;20048;-37
2021/09/11 01:41:20;;;;;;;6.03;5.45;;;;;;;;;;5015909;28;20503;-37
2021/09/11 01:43:45;;;;;;;4.43;4.03;;;;;;;;;;5010011;28;20030;-37
2021/09/11 01:46:11;;;;;;;11.73;6.18;;;;;;;;;;5017896;28;20036;-38
2021/09/11 01:48:36;;;;;;;7.75;6.45;;;;;;;;;;5017588;28;20080;-38
2021/09/11 01:51:01;;;;;;;12.35;6.93;;;;;;;;;;5014902;28;20265;-38
2021/09/11 01:53:26;;;;;;;8.82;6.55;;;;;;;;;;5021461;28;20112;-38
2021/09/11 01:55:52;;;;;;;7.00;5.65;;;;;;;;;;5012644;28;20056;-39
2021/09/11 01:58:19;;;;;;;5.78;4.93;;;;;;;;;;5013241;28;20033;-37
2021/09/11 02:00:45;;;;;;;5.40;4.85;;;;;;;;;;5012353;28;20028;-37
2021/09/11 02:03:10;;;;;;;12.63;5.63;;;;;;;;;;5019273;28;20029;-37
2021/09/11 02:05:38;;;;;;;10.57;6.38;;;;;;;;;;5014017;28;20060;-37
2021/09/11 02:08:03;;;;;;;5.20;4.70;;;;;;;;;;5008548;28;20023;-37
2021/09/11 02:10:29;;;;;;;6.05;5.45;;;;;;;;;;5017258;28;20026;-37
2021/09/11 02:12:54;;;;;;;8.68;6.43;;;;;;;;;;5016544;28;20029;-37
2021/09/11 02:15:21;;;;;;;10.00;5.13;;;;;;;;;;5013138;28;20025;-37
2021/09/11 02:17:50;;;;;;;13.30;5.13;;;;;;;;;;5019064;28;20029;-37
2021/09/11 02:20:18;;;;;;;8.80;6.00;;;;;;;;;;5015247;28;20520;-38
2021/09/11 02:22:43;;;;;;;5.90;4.93;;;;;;;;;;5014591;28;20033;-37
2021/09/11 02:25:11;;;;;;;7.57;5.75;;;;;;;;;;5016717;28;20048;-37
2021/09/11 02:27:41;;;;;;;7.85;4.88;;;;;;;;;;5018976;28;20776;-37
2021/09/11 02:30:06;;;;;;;8.00;5.45;;;;;;;;;;5015335;28;20025;-38
2021/09/11 02:32:38;;;;;;;6.68;5.65;;;;;;;;;;5012608;28;20024;-38
2021/09/11 02:35:03;;;;;;;8.93;6.13;;;;;;;;;;5011283;28;20026;-37
2021/09/11 02:37:31;;;;;;;7.80;5.55;;;;;;;;;;5014719;28;20027;-37
2021/09/11 02:39:59;;;;;;;5.97;5.40;;;;;;;;;;5009779;28;20025;-38
2021/09/11 02:42:24;;;;;;;3.85;3.53;;;;;;;;;;5013026;28;20035;-37
2021/09/11 02:44:52;;;;;;;6.28;4.90;;;;;;;;;;5020102;28;20429;-37
2021/09/11 02:47:20;;;;;;;6.28;5.65;;;;;;;;;;5015224;28;20025;-38
2021/09/11 02:49:45;;;;;;;7.45;6.18;;;;;;;;;;5016187;28;20026;-37
2021/09/11 02:52:10;;;;;;;8.98;5.45;;;;;;;;;;5010912;28;20056;-37
2021/09/11 02:54:35;;;;;;;6.82;6.07;;;;;;;;;;5008837;28;20029;-37
2021/09/11 02:57:01;;;;;;;13.10;5.75;;;;;;;;;;5006840;28;20507;-37
2021/09/11 02:59:26;;;;;;;9.65;5.90;;;;;;;;;;5018529;28;20034;-37
2021/09/11 03:01:54;;;;;;;12.05;6.60;;;;;;;;;;5016316;28;20401;-37
2021/09/11 03:04:19;;;;;;;10.35;6.72;;;;;;;;;;5015377;28;20049;-37
2021/09/11 03:06:45;;;;;;;6.88;5.13;;;;;;;;;;5018125;28;20048;-38
2021/09/11 03:09:10;;;;;;;6.05;5.45;;;;;;;;;;5016685;28;20064;-37
2021/09/11 03:11:35;;;;;;;5.75;5.07;;;;;;;;;;5014716;28;20017;-37
2021/09/11 03:14:00;;;;;;;10.68;6.10;;;;;;;;;;5015480;28;20079;-37
2021/09/11 03:16:26;;;;;;;7.03;6.35;;;;;;;;;;5012885;28;20057;-37
2021/09/11 03:18:51;;;;;;;6.35;5.45;;;;;;;;;;5009607;28;20018;-37
2021/09/11 03:21:16;;;;;;;12.95;5.35;;;;;;;;;;5015301;28;20075;-37
2021/09/11 03:23:44;;;;;;;7.35;6.55;;;;;;;;;;5017624;28;20493;-37
2021/09/11 03:26:09;;;;;;;20.13;7.03;;;;;;;;;;5006454;28;20053;-37
2021/09/11 03:28:37;;;;;;;19.30;7.35;;;;;;;;;;5014447;28;20125;-38
2021/09/11 03:31:03;;;;;;;5.07;4.30;;;;;;;;;;5015197;28;20032;-37
2021/09/11 03:33:28;;;;;;;6.65;5.85;;;;;;;;;;5015040;28;20014;-38
2021/09/11 03:35:53;;;;;;;6.25;5.68;;;;;;;;;;5012871;28;20525;-38
2021/09/11 03:38:19;;;;;;;6.20;5.70;;;;;;;;;;5020096;28;20699;-37
2021/09/11 03:40:44;;;;;;;6.53;5.20;;;;;;;;;;5012601;28;20026;-37
2021/09/11 03:43:09;;;;;;;12.32;6.07;;;;;;;;;;5012334;28;20026;-38
2021/09/11 03:45:34;;;;;;;12.93;5.95;;;;;;;;;;5011922;28;20037;-38
2021/09/11 03:48:00;;;;;;;10.20;6.05;;;;;;;;;;5012150;28;20038;-37
2021/09/11 03:50:25;;;;;;;8.02;5.82;;;;;;;;;;5005868;28;20049;-37
2021/09/11 03:52:50;;;;;;;9.93;5.82;;;;;;;;;;5004488;28;20216;-37
2021/09/11 03:55:16;;;;;;;10.63;5.30;;;;;;;;;;5015184;28;20084;-38
2021/09/11 03:57:42;;;;;;;8.55;5.10;;;;;;;;;;5017866;28;20080;-37
2021/09/11 04:00:07;;;;;;;9.48;6.05;;;;;;;;;;5017911;28;20065;-37
2021/09/11 04:02:33;;;;;;;5.93;5.30;;;;;;;;;;5015030;28;20056;-38
2021/09/11 04:04:58;;;;;;;7.22;5.28;;;;;;;;;;5012714;28;20045;-38
2021/09/11 04:07:23;;;;;;;5.15;4.70;;;;;;;;;;5010839;28;20118;-37
2021/09/11 04:09:49;;;;;;;7.00;5.47;;;;;;;;;;5011679;28;20029;-37
2021/09/11 04:12:14;;;;;;;6.53;5.60;;;;;;;;;;5008186;28;20056;-37
2021/09/11 04:14:39;;;;;;;12.45;6.60;;;;;;;;;;5009364;28;20025;-38
2021/09/11 04:17:04;;;;;;;7.32;5.10;;;;;;;;;;5015392;28;20053;-38
2021/09/11 04:19:30;;;;;;;9.18;5.30;;;;;;;;;;5012544;28;20029;-37
2021/09/11 04:21:55;;;;;;;10.65;5.20;;;;;;;;;;5014397;28;20029;-38
2021/09/11 04:24:20;;;;;;;10.15;5.88;;;;;;;;;;5019337;28;20376;-37
2021/09/11 04:26:46;;;;;;;7.18;5.07;;;;;;;;;;5013540;28;20030;-37
2021/09/11 04:29:11;;;;;;;8.57;6.45;;;;;;;;;;5015994;28;20058;-38
2021/09/11 04:31:36;;;;;;;8.13;5.32;;;;;;;;;;5010098;28;20025;-38
2021/09/11 04:34:02;;;;;;;6.88;5.60;;;;;;;;;;5015009;28;20028;-38
2021/09/11 04:36:27;;;;;;;7.50;6.80;;;;;;;;;;5015597;28;20025;-37
2021/09/11 04:38:52;;;;;;;10.93;6.57;;;;;;;;;;5014100;28;20027;-38
2021/09/11 04:41:18;;;;;;;8.50;7.70;;;;;;;;;;5014154;28;20495;-37
2021/09/11 04:43:43;;;;;;;10.27;7.32;;;;;;;;;;5018032;28;20029;-37
2021/09/11 04:46:08;;;;;;;6.65;5.80;;;;;;;;;;5019798;28;20028;-38
2021/09/11 04:48:33;;;;;;;11.80;6.18;;;;;;;;;;5019472;28;20021;-38
2021/09/11 04:50:59;;;;;;;7.80;6.78;;;;;;;;;;5016782;28;20302;-38
2021/09/11 04:53:24;;;;;;;10.05;6.50;;;;;;;;;;5013947;28;20029;-37
2021/09/11 04:55:50;;;;;;;9.07;5.22;;;;;;;;;;5011838;28;20018;-38
2021/09/11 04:58:15;;;;;;;6.57;5.97;;;;;;;;;;5007582;28;20472;-38
2021/09/11 05:00:41;;;;;;;6.88;6.13;;;;;;;;;;5012682;28;20029;-38
2021/09/11 05:03:06;;;;;;;7.28;5.20;;;;;;;;;;5016465;28;20590;-38
2021/09/11 05:05:32;;;;;;;7.35;5.65;;;;;;;;;;5018654;28;20050;-37
2021/09/11 05:07:57;;;;;;;10.02;7.13;;;;;;;;;;5022712;28;20234;-37
2021/09/11 05:10:23;;;;;;;12.65;8.25;;;;;;;;;;5019361;28;20652;-38
2021/09/11 05:12:48;;;;;;;9.27;5.75;;;;;;;;;;5018722;28;20021;-37
2021/09/11 05:15:14;;;;;;;10.68;6.13;;;;;;;;;;5018556;28;20543;-38
2021/09/11 05:17:39;;;;;;;12.20;7.10;;;;;;;;;;5017335;28;20533;-37
2021/09/11 05:20:05;;;;;;;6.75;6.05;;;;;;;;;;5014260;28;20099;-37
2021/09/11 05:22:30;;;;;;;14.70;7.10;;;;;;;;;;5015002;28;20033;-37
2021/09/11 05:24:56;;;;;;;7.00;6.30;;;;;;;;;;5021238;28;20017;-38
2021/09/11 05:27:21;;;;;;;10.38;7.07;;;;;;;;;;5017491;28;20740;-37
2021/09/11 05:29:46;;;;;;;10.38;6.45;;;;;;;;;;5018362;28;20071;-37
2021/09/11 05:32:11;;;;;;;8.75;6.72;;;;;;;;;;5015291;28;20029;-37
2021/09/11 05:34:37;;;;;;;8.70;7.32;;;;;;;;;;5009483;28;20080;-38
2021/09/11 05:37:02;;;;;;;14.57;5.53;;;;;;;;;;5020123;28;20052;-37
2021/09/11 05:39:27;;;;;;;12.55;7.07;;;;;;;;;;5017490;28;20678;-38
2021/09/11 05:41:54;;;;;;;23.35;7.53;;;;;;;;;;5015256;28;20026;-37
2021/09/11 05:44:19;;;;;;;10.68;6.18;;;;;;;;;;5015429;28;20497;-37
2021/09/11 05:46:44;;;;;;;9.10;8.00;;;;;;;;;;5015871;28;20065;-37
2021/09/11 05:49:09;;;;;;;8.15;7.38;;;;;;;;;;5016452;28;20017;-38
2021/09/11 05:51:35;;;;;;;6.82;6.07;;;;;;;;;;5016532;28;20029;-37
2021/09/11 05:54:00;;;;;;;14.30;9.30;;;;;;;;;;5017503;28;20020;-38
2021/09/11 05:56:25;;;;;;;17.48;9.77;;;;;;;;;;5014106;28;20034;-38
2021/09/11 05:58:51;;;;;;;46.05;30.33;;;;;;;;;;5011417;28;20053;-38
2021/09/11 06:01:16;;;;;;;61.78;41.20;;;;;;;;;;5018345;28;20056;-37
2021/09/11 06:03:41;;;;;;;39.00;34.88;;;;;;;;;;5014239;28;20042;-37
2021/09/11 06:06:07;;;;;;;19.95;17.33;;;;;;;;;;5020212;28;20112;-37
2021/09/11 06:08:33;;;;;;;16.48;13.48;;;;;;;;;;5017416;28;20116;-38
2021/09/11 06:10:58;;;;;;;12.10;10.23;;;;;;;;;;5015488;28;20121;-38
2021/09/11 06:13:24;;;;;;;12.43;10.15;;;;;;;;;;5014184;28;20461;-37
2021/09/11 06:15:49;;;;;;;13.43;9.45;;;;;;;;;;5015674;28;20117;-37
2021/09/11 06:18:14;;;;;;;11.23;10.05;;;;;;;;;;5017869;28;20026;-38
2021/09/11 06:20:40;;;;;;;10.93;9.77;;;;;;;;;;5016463;28;20029;-38
2021/09/11 06:23:05;;;;;;;10.65;9.55;;;;;;;;;;5008347;28;20108;-38
2021/09/11 06:25:30;;;;;;;11.93;9.98;;;;;;;;;;5013859;28;20545;-38
2021/09/11 06:27:57;;;;;;;12.63;11.18;;;;;;;;;;5018932;28;20022;-38
2021/09/11 06:30:23;;;;;;;20.40;11.38;;;;;;;;;;5016895;28;20072;-38
2021/09/11 06:32:48;;;;;;;24.25;11.30;;;;;;;;;;5013113;28;20665;-37
2021/09/11 06:35:14;;;;;;;13.13;11.32;;;;;;;;;;5016027;28;20469;-38
2021/09/11 06:37:39;;;;;;;25.15;11.40;;;;;;;;;;5019148;28;20049;-38
2021/09/11 06:40:05;;;;;;;29.70;11.80;;;;;;;;;;5019246;28;20025;-38
2021/09/11 06:42:30;;;;;;;9.68;8.77;;;;;;;;;;5016047;28;20061;-37
2021/09/11 06:44:55;;;;;;;20.90;12.32;;;;;;;;;;5009186;28;20075;-37
2021/09/11 06:47:21;;;;;;;10.55;8.32;;;;;;;;;;5013332;28;20029;-38
2021/09/11 06:49:46;;;;;;;20.88;9.05;;;;;;;;;;5017630;28;20720;-37
2021/09/11 06:52:11;;;;;;;10.18;8.65;;;;;;;;;;5011707;28;20556;-37
2021/09/11 06:54:37;;;;;;;19.00;11.82;;;;;;;;;;5015486;28;20029;-38
2021/09/11 06:57:02;;;;;;;17.15;11.40;;;;;;;;;;5019031;28;20026;-37
2021/09/11 06:59:28;;;;;;;12.90;10.60;;;;;;;;;;5011347;28;20622;-37
2021/09/11 07:01:53;;;;;;;9.73;8.73;;;;;;;;;;5013412;28;20452;-38
2021/09/11 07:04:18;;;;;;;13.95;12.45;;;;;;;;;;5011142;28;20586;-37
2021/09/11 07:06:44;;;;;;;20.13;17.83;;;;;;;;;;5013601;28;20132;-37
2021/09/11 07:09:09;;;;;;;20.58;15.70;;;;;;;;;;5014529;28;20071;-37
2021/09/11 07:11:35;;;;;;;24.88;14.90;;;;;;;;;;5016354;28;20256;-37
2021/09/11 07:14:00;;;;;;;13.23;12.00;;;;;;;;;;5013833;28;20469;-37
2021/09/11 07:16:25;;;;;;;13.18;10.38;;;;;;;;;;5017863;28;20084;-37
2021/09/11 07:18:51;;;;;;;11.13;8.43;;;;;;;;;;5014538;28;20113;-37
2021/09/11 07:21:16;;;;;;;17.38;7.70;;;;;;;;;;5013673;28;20033;-37
2021/09/11 07:23:41;;;;;;;9.30;8.02;;;;;;;;;;5015939;28;20566;-37
2021/09/11 07:26:07;;;;;;;9.75;8.48;;;;;;;;;;5014558;28;20729;-37
2021/09/11 07:28:32;;;;;;;8.35;6.82;;;;;;;;;;5015212;28;20935;-37
2021/09/11 07:30:57;;;;;;;9.70;6.57;;;;;;;;;;5016199;28;20076;-37
2021/09/11 07:33:23;;;;;;;9.50;5.88;;;;;;;;;;5019200;28;20022;-37
2021/09/11 07:35:48;;;;;;;19.50;7.82;;;;;;;;;;5020547;28;20028;-61
2021/09/11 07:38:15;;;;;;;9.77;7.28;;;;;;;;;;5016963;28;20038;-56
2021/09/11 07:40:40;;;;;;;14.48;8.68;;;;;;;;;;5010588;28;20361;-57
2021/09/11 07:43:06;;;;;;;12.25;9.52;;;;;;;;;;5010006;28;20490;-57
2021/09/11 07:45:31;;;;;;;12.23;7.93;;;;;;;;;;5016223;28;20057;-57
2021/09/11 07:47:56;;;;;;;11.88;9.98;;;;;;;;;;5017763;28;20204;-57
2021/09/11 07:50:26;;;;;;;9.52;7.60;;;;;;;;;;5015398;28;20783;-57
2021/09/11 07:52:52;;;;;;;12.25;6.90;;;;;;;;;;5014493;28;20045;-57
2021/09/11 07:55:17;;;;;;;8.43;7.05;;;;;;;;;;5017478;28;20018;-50
2021/09/11 07:57:43;;;;;;;8.65;7.75;;;;;;;;;;5016462;28;20457;-50
2021/09/11 08:00:08;;;;;;;9.32;6.85;;;;;;;;;;5018108;28;20088;-50
2021/09/11 08:02:35;;;;;;;7.63;6.97;;;;;;;;;;5010854;28;20144;-48
2021/09/11 08:05:00;;;;;;;13.27;10.30;;;;;;;;;;5004901;28;20051;-46
2021/09/11 08:07:27;;;;;;;8.98;8.02;;;;;;;;;;5012118;28;20026;-49
2021/09/11 08:09:53;;;;;;;9.80;6.05;;;;;;;;;;5009426;28;20013;-58
2021/09/11 08:12:18;;;;;;;8.43;7.63;;;;;;;;;;5017342;28;20033;-52
2021/09/11 08:14:44;;;;;;;13.93;8.02;;;;;;;;;;5016297;28;20081;-53
2021/09/11 08:17:09;;;;;;;10.65;9.55;;;;;;;;;;5012466;28;20034;-53
2021/09/11 08:19:34;;;;;;;10.77;8.38;;;;;;;;;;5014664;28;20021;-56
2021/09/11 08:22:00;;;;;;;7.40;6.65;;;;;;;;;;5016228;28;20038;-52
2021/09/11 08:24:25;;;;;;;9.88;7.80;;;;;;;;;;5011935;28;20045;-50
2021/09/11 08:26:50;;;;;;;7.60;6.07;;;;;;;;;;5008962;28;20021;-47
2021/09/11 08:29:15;;;;;;;6.68;5.97;;;;;;;;;;5009817;28;20022;-52
2021/09/11 08:31:41;;;;;;;8.85;5.90;;;;;;;;;;5011445;28;20033;-53
2021/09/11 08:34:06;;;;;;;5.78;5.28;;;;;;;;;;5012953;28;20017;-54
2021/09/11 08:36:31;;;;;;;7.40;6.05;;;;;;;;;;5009681;28;20014;-48
2021/09/11 08:38:57;;;;;;;11.13;6.90;;;;;;;;;;5012908;28;20025;-48
2021/09/11 08:41:22;;;;;;;7.03;6.32;;;;;;;;;;5006107;28;20025;-58
2021/09/11 08:43:47;;;;;;;10.55;6.20;;;;;;;;;;5013888;28;20135;-55
2021/09/11 08:46:13;;;;;;;7.80;5.22;;;;;;;;;;5013283;28;20022;-43
2021/09/11 08:48:38;;;;;;;11.13;6.50;;;;;;;;;;5013453;28;20086;-47
2021/09/11 08:51:04;;;;;;;5.85;5.25;;;;;;;;;;5012681;28;20026;-50
2021/09/11 08:53:29;;;;;;;7.90;4.13;;;;;;;;;;5013060;28;20026;-49
2021/09/11 08:55:54;;;;;;;8.25;5.75;;;;;;;;;;5014955;28;20033;-58
2021/09/11 08:58:21;;;;;;;9.25;5.93;;;;;;;;;;5013216;28;20370;-59
2021/09/11 09:00:53;;;;;;;4.68;4.20;;;;;;;;;;5014724;28;20119;-59
2021/09/11 09:03:41;;;;;;;6.97;4.63;;;;;;;;;;5015162;28;20022;-59
2021/09/11 09:06:10;;;;;;;7.45;4.22;;;;;;;;;;5007183;28;20825;-59
2021/09/11 09:08:35;;;;;;;10.07;6.15;;;;;;;;;;5018445;28;20663;-59
2021/09/11 09:11:13;;;;;;;4.47;3.90;;;;;;;;;;5010632;28;20032;-59
2021/09/11 09:14:02;;;;;;;4.88;4.47;;;;;;;;;;5008284;28;20230;-59
2021/09/11 09:16:32;;;;;;;7.50;3.70;;;;;;;;;;5006548;28;20525;-59
2021/09/11 09:18:58;;;;;;;5.43;4.35;;;;;;;;;;5007774;28;20025;-59
2021/09/11 09:21:24;;;;;;;7.63;5.68;;;;;;;;;;5009911;28;20018;-59
2021/09/11 09:23:53;;;;;;;8.30;5.45;;;;;;;;;;5012662;28;20061;-60
2021/09/11 09:26:18;;;;;;;20.25;6.30;;;;;;;;;;5013014;28;20018;-60
2021/09/11 09:29:00;;;;;;;4.45;4.03;;;;;;;;;;5020111;28;20029;-60
2021/09/11 09:31:26;;;;;;;13.05;5.07;;;;;;;;;;5017916;28;20436;-59
2021/09/11 09:33:51;;;;;;;7.18;4.93;;;;;;;;;;5014059;28;20025;-60
2021/09/11 09:36:16;;;;;;;5.68;4.53;;;;;;;;;;4999652;28;20032;-59
2021/09/11 09:38:44;;;;;;;4.03;3.55;;;;;;;;;;5007905;28;20022;-60
2021/09/11 09:41:11;;;;;;;9.20;5.32;;;;;;;;;;5012192;28;20052;-60
2021/09/11 09:43:42;;;;;;;5.82;3.78;;;;;;;;;;5014551;28;20037;-59
2021/09/11 09:46:13;;;;;;;7.47;6.35;;;;;;;;;;5019164;28;20029;-60
2021/09/11 09:48:39;;;;;;;5.88;4.85;;;;;;;;;;5017469;28;20112;-59
2021/09/11 09:51:06;;;;;;;8.70;4.53;;;;;;;;;;5018368;28;20025;-60
2021/09/11 09:53:32;;;;;;;6.40;5.15;;;;;;;;;;5017431;28;20018;-59
2021/09/11 09:55:58;;;;;;;7.07;5.28;;;;;;;;;;5013832;28;20032;-60
2021/09/11 09:58:24;;;;;;;6.95;3.63;;;;;;;;;;5020316;28;20031;-60
2021/09/11 10:00:49;;;;;;;9.77;5.05;;;;;;;;;;5013252;28;20590;-59
2021/09/11 10:03:15;;;;;;;7.35;4.07;;;;;;;;;;5019871;28;20104;-59
2021/09/11 10:05:42;;;;;;;5.93;4.00;;;;;;;;;;5016638;28;20041;-59
2021/09/11 10:08:09;;;;;;;7.03;3.92;;;;;;;;;;5006040;28;20296;-59
2021/09/11 10:10:35;;;;;;;4.20;3.50;;;;;;;;;;5016640;28;20349;-59
2021/09/11 10:13:08;;;;;;;5.97;4.53;;;;;;;;;;5019318;28;20108;-59
2021/09/11 10:15:37;;;;;;;6.10;3.78;;;;;;;;;;5018767;28;20018;-59
2021/09/11 10:18:03;;;;;;;9.10;4.30;;;;;;;;;;5014207;28;20449;-59
2021/09/11 10:20:49;;;;;;;6.95;3.65;;;;;;;;;;5018902;28;20062;-59
2021/09/11 10:23:14;;;;;;;11.35;5.00;;;;;;;;;;5015032;28;20024;-59
2021/09/11 10:25:40;;;;;;;6.00;3.83;;;;;;;;;;5018949;28;20030;-59
2021/09/11 10:28:18;;;;;;;7.72;3.67;;;;;;;;;;5016691;28;20262;-59
2021/09/11 10:31:09;;;;;;;18.35;4.55;;;;;;;;;;5014392;28;20026;-59
2021/09/11 10:33:47;;;;;;;27.17;5.57;;;;;;;;;;5009650;28;20033;-59
2021/09/11 10:36:18;;;;;;;5.18;2.92;;;;;;;;;;5018630;28;20055;-59
2021/09/11 10:38:43;;;;;;;5.80;5.15;;;;;;;;;;5014795;28;20026;-59
2021/09/11 10:41:11;;;;;;;9.18;4.43;;;;;;;;;;5017182;28;20126;-59
2021/09/11 10:43:36;;;;;;;5.13;2.95;;;;;;;;;;5022391;28;20025;-59
2021/09/11 10:46:04;;;;;;;6.68;4.47;;;;;;;;;;5014563;28;20739;-59
2021/09/11 10:48:31;;;;;;;4.75;3.55;;;;;;;;;;5018798;28;20481;-59
2021/09/11 10:50:56;;;;;;;4.75;3.47;;;;;;;;;;5014181;28;20032;-59
2021/09/11 10:53:23;;;;;;;14.07;4.78;;;;;;;;;;5013345;28;20022;-59
2021/09/11 10:55:49;;;;;;;4.28;3.80;;;;;;;;;;5013229;28;20106;-59
2021/09/11 10:58:40;;;;;;;8.38;5.45;;;;;;;;;;5018114;28;20112;-59
2021/09/11 11:01:05;;;;;;;5.57;3.63;;;;;;;;;;5012011;28;20038;-59
2021/09/11 11:03:31;;;;;;;4.50;3.88;;;;;;;;;;5014753;28;20033;-59
2021/09/11 11:06:03;;;;;;;4.85;3.30;;;;;;;;;;5013744;28;20500;-59
2021/09/11 11:08:29;;;;;;;4.30;3.75;;;;;;;;;;5009515;28;20116;-59
2021/09/11 11:10:54;;;;;;;7.05;3.45;;;;;;;;;;5008604;28;20095;-59
2021/09/11 11:13:21;;;;;;;12.90;3.63;;;;;;;;;;5017091;28;20045;-59
2021/09/11 11:15:53;;;;;;;6.15;4.35;;;;;;;;;;5017135;28;20574;-59
2021/09/11 11:18:18;;;;;;;7.80;3.53;;;;;;;;;;5015404;28;20029;-59
2021/09/11 11:20:43;;;;;;;7.40;2.65;;;;;;;;;;5013024;28;20028;-59
2021/09/11 11:23:09;;;;;;;3.50;2.35;;;;;;;;;;5014562;28;20138;-59
2021/09/11 11:25:36;;;;;;;6.00;3.65;;;;;;;;;;5020901;28;20726;-59
2021/09/11 11:28:06;;;;;;;5.28;2.67;;;;;;;;;;5018318;28;20034;-59
2021/09/11 11:30:31;;;;;;;3.22;1.88;;;;;;;;;;5014579;28;20075;-59
2021/09/11 11:33:00;;;;;;;6.90;4.25;;;;;;;;;;5009241;28;20132;-59
2021/09/11 11:35:25;;;;;;;8.85;4.60;;;;;;;;;;5015701;28;20018;-59
2021/09/11 11:37:51;;;;;;;14.25;4.05;;;;;;;;;;5017797;28;20251;-59
2021/09/11 11:40:16;;;;;;;6.10;2.67;;;;;;;;;;5013237;28;20057;-59
2021/09/11 11:42:42;;;;;;;4.80;3.60;;;;;;;;;;5014490;28;20025;-59
2021/09/11 11:45:09;;;;;;;10.80;4.45;;;;;;;;;;5011622;28;20061;-59
2021/09/11 11:47:53;;;;;;;6.35;2.97;;;;;;;;;;5018717;28;20068;-59
2021/09/11 11:50:32;;;;;;;3.90;2.35;;;;;;;;;;5018053;28;20024;-59
2021/09/11 11:52:58;;;;;;;1.98;1.83;;;;;;;;;;5017394;28;20491;-59
2021/09/11 11:55:24;;;;;;;10.25;4.13;;;;;;;;;;5015258;28;20029;-59
2021/09/11 11:57:50;;;;;;;6.97;3.90;;;;;;;;;;5016415;28;20070;-59
2021/09/11 12:00:17;;;;;;;2.05;1.60;;;;;;;;;;5014431;28;20068;-59
2021/09/11 12:02:46;;;;;;;16.02;3.22;;;;;;;;;;5012188;28;20030;-59
2021/09/11 12:05:15;;;;;;;6.90;4.65;;;;;;;;;;5013068;28;20050;-59
2021/09/11 12:07:41;;;;;;;4.88;3.63;;;;;;;;;;5009133;28;20690;-59
2021/09/11 12:10:13;;;;;;;17.65;4.63;;;;;;;;;;5013619;28;20028;-59
2021/09/11 12:12:49;;;;;;;5.45;2.33;;;;;;;;;;5016405;28;20044;-59
2021/09/11 12:15:16;;;;;;;7.07;5.25;;;;;;;;;;5019568;28;20728;-59
2021/09/11 12:17:54;;;;;;;6.05;3.70;;;;;;;;;;5012112;28;20061;-59
2021/09/11 12:20:20;;;;;;;13.13;2.75;;;;;;;;;;5013467;28;20752;-59
2021/09/11 12:23:00;;;;;;;3.72;3.28;;;;;;;;;;5015978;28;20021;-59
2021/09/11 12:25:26;;;;;;;4.88;2.58;;;;;;;;;;5015260;28;20036;-59
2021/09/11 12:27:51;;;;;;;5.93;3.72;;;;;;;;;;5016909;28;20030;-59
2021/09/11 12:30:17;;;;;;;4.22;2.45;;;;;;;;;;5014564;28;20023;-59
2021/09/11 12:32:49;;;;;;;4.72;4.07;;;;;;;;;;5014327;28;20022;-59
2021/09/11 12:35:14;;;;;;;4.72;2.40;;;;;;;;;;5015620;28;20377;-59
2021/09/11 12:37:55;;;;;;;6.65;4.00;;;;;;;;;;5014662;28;20062;-59
2021/09/11 12:40:21;;;;;;;6.65;5.10;;;;;;;;;;5013267;28;20108;-59
2021/09/11 12:42:46;;;;;;;4.65;2.85;;;;;;;;;;5010642;28;20045;-59
2021/09/11 12:45:12;;;;;;;5.07;4.22;;;;;;;;;;5016448;28;20028;-59
2021/09/11 12:47:37;;;;;;;2.85;2.17;;;;;;;;;;5012133;28;20493;-59
2021/09/11 12:50:03;;;;;;;5.25;3.78;;;;;;;;;;5012774;28;20025;-59
2021/09/11 12:52:28;;;;;;;3.55;2.20;;;;;;;;;;5015249;28;20017;-59
2021/09/11 12:54:54;;;;;;;7.00;3.70;;;;;;;;;;5015634;28;20021;-59
2021/09/11 12:57:19;;;;;;;6.13;2.63;;;;;;;;;;5013850;28;20022;-56
2021/09/11 12:59:44;;;;;;;3.92;1.65;;;;;;;;;;5010989;28;20036;-58
2021/09/11 13:02:10;;;;;;;9.43;4.25;;;;;;;;;;5008509;28;20029;-58
2021/09/11 13:04:35;;;;;;;9.98;3.72;;;;;;;;;;5011866;28;20257;-58
2021/09/11 13:07:00;;;;;;;6.15;3.65;;;;;;;;;;5011601;28;20310;-58
2021/09/11 13:09:26;;;;;;;4.93;3.55;;;;;;;;;;5011292;28;20777;-58
2021/09/11 13:11:51;;;;;;;7.78;4.40;;;;;;;;;;5011007;28;20022;-58
2021/09/11 13:14:17;;;;;;;4.97;3.50;;;;;;;;;;5014593;28;20058;-58
2021/09/11 13:16:43;;;;;;;3.10;2.45;;;;;;;;;;5016292;28;20029;-58
2021/09/11 13:19:08;;;;;;;4.28;2.67;;;;;;;;;;5015702;28;20067;-59
2021/09/11 13:21:34;;;;;;;9.30;4.72;;;;;;;;;;5014718;28;20605;-58
2021/09/11 13:24:00;;;;;;;9.13;2.25;;;;;;;;;;5016808;28;20021;-58
2021/09/11 13:26:26;;;;;;;4.95;3.55;;;;;;;;;;5013244;28;20056;-58
2021/09/11 13:28:52;;;;;;;5.65;3.42;;;;;;;;;;5015295;28;20018;-58
2021/09/11 13:31:18;;;;;;;11.77;3.08;;;;;;;;;;5012917;28;20030;-58
2021/09/11 13:33:48;;;;;;;6.63;2.45;;;;;;;;;;5016933;28;20025;-58
2021/09/11 13:36:13;;;;;;;6.60;3.35;;;;;;;;;;5020609;28;20032;-58
2021/09/11 13:38:38;;;;;;;4.72;2.90;;;;;;;;;;5020135;28;20033;-58
2021/09/11 13:41:06;;;;;;;5.90;3.83;;;;;;;;;;5021788;28;20029;-58
2021/09/11 13:43:31;;;;;;;7.22;3.20;;;;;;;;;;5014719;28;20017;-58
2021/09/11 13:45:57;;;;;;;6.32;4.90;;;;;;;;;;5018153;28;20083;-58
2021/09/11 13:48:22;;;;;;;3.95;2.92;;;;;;;;;;5015725;28;20071;-58
2021/09/11 13:50:48;;;;;;;4.63;3.33;;;;;;;;;;5016407;28;20519;-58
2021/09/11 13:53:14;;;;;;;12.27;5.30;;;;;;;;;;5018930;28;20525;-58
2021/09/11 13:55:39;;;;;;;11.68;2.83;;;;;;;;;;5016379;28;20026;-58
2021/09/11 13:58:05;;;;;;;6.93;3.22;;;;;;;;;;5012394;28;20025;-58
2021/09/11 14:00:30;;;;;;;5.15;4.10;;;;;;;;;;5016599;28;20030;-58
2021/09/11 14:02:57;;;;;;;8.60;2.75;;;;;;;;;;5014219;28;20113;-58
2021/09/11 14:05:22;;;;;;;4.05;2.92;;;;;;;;;;5016406;28;20052;-58
2021/09/11 14:07:48;;;;;;;5.72;3.05;;;;;;;;;;5014729;28;20649;-58
2021/09/11 14:10:15;;;;;;;3.20;2.90;;;;;;;;;;5010649;28;20021;-58
2021/09/11 14:12:41;;;;;;;6.97;4.80;;;;;;;;;;5013753;28;20668;-58
2021/09/11 14:15:06;;;;;;;4.90;2.58;;;;;;;;;;5017487;28;20026;-58
2021/09/11 14:17:32;;;;;;;3.42;2.50;;;;;;;;;;5015717;28;20044;-58
2021/09/11 14:19:57;;;;;;;3.25;1.65;;;;;;;;;;5018004;28;20595;-58
2021/09/11 14:22:23;;;;;;;7.05;4.15;;;;;;;;;;5016063;28;20018;-58
2021/09/11 14:24:48;;;;;;;4.57;3.63;;;;;;;;;;5019569;28;20526;-58
2021/09/11 14:27:13;;;;;;;5.10;2.75;;;;;;;;;;5015903;28;20527;-58
2021/09/11 14:29:39;;;;;;;8.02;4.32;;;;;;;;;;5017355;28;20034;-58
2021/09/11 14:32:04;;;;;;;10.18;3.20;;;;;;;;;;5021162;28;20091;-58
2021/09/11 14:34:34;;;;;;;3.92;2.85;;;;;;;;;;5011138;28;20474;-58